sensor_id;sensor_type;location;lat;lon;timestamp;P1;durP1;ratioP1;P2;durP2;ratioP2
74320;SDS011;62738;45.772;4.804;2022-12-18T00:02:12;42.25;;;17.80;;
74320;SDS011;62738;45.772;4.804;2022-12-18T00:04:39;35.10;;;14.82;;
74320;SDS011;62738;45.772;4.804;2022-12-18T00:07:06;33.30;;;14.93;;
74320;SDS011;62738;45.772;4.804;2022-12-18T00:09:32;40.72;;;17.35;;
74320;SDS011;62738;45.772;4.804;2022-12-18T00:12:05;36.83;;;16.33;;
74320;SDS011;62738;45.772;4.804;2022-12-18T00:14:43;39.33;;;16.90;;
74320;SDS011;62738;45.772;4.804;2022-12-18T00:17:10;35.72;;;16.30;;
74320;SDS011;62738;45.772;4.804;2022-12-18T00:19:37;34.08;;;15.75;;
74320;SDS011;62738;45.772;4.804;2022-12-18T00:22:03;43.75;;;16.60;;
74320;SDS011;62738;45.772;4.804;2022-12-18T00:24:31;38.05;;;16.90;;
74320;SDS011;62738;45.772;4.804;2022-12-18T00:26:57;33.25;;;15.55;;
74320;SDS011;62738;45.772;4.804;2022-12-18T00:29:24;36.35;;;15.50;;
74320;SDS011;62738;45.772;4.804;2022-12-18T00:31:51;39.05;;;17.52;;
74320;SDS011;62738;45.772;4.804;2022-12-18T00:34:17;38.85;;;17.55;;
74320;SDS011;62738;45.772;4.804;2022-12-18T00:36:44;38.28;;;16.30;;
74320;SDS011;62738;45.772;4.804;2022-12-18T00:39:13;39.30;;;15.98;;
74320;SDS011;62738;45.772;4.804;2022-12-18T00:41:40;35.75;;;16.65;;
74320;SDS011;62738;45.772;4.804;2022-12-18T00:44:25;37.95;;;16.75;;
74320;SDS011;62738;45.772;4.804;2022-12-18T00:46:52;37.83;;;17.15;;
74320;SDS011;62738;45.772;4.804;2022-12-18T00:49:19;42.25;;;17.20;;
74320;SDS011;62738;45.772;4.804;2022-12-18T00:51:46;45.65;;;17.30;;
74320;SDS011;62738;45.772;4.804;2022-12-18T00:54:14;39.90;;;17.10;;
74320;SDS011;62738;45.772;4.804;2022-12-18T00:56:40;38.13;;;15.80;;
74320;SDS011;62738;45.772;4.804;2022-12-18T00:59:18;33.85;;;15.43;;
74320;SDS011;62738;45.772;4.804;2022-12-18T01:01:45;36.63;;;15.68;;
74320;SDS011;62738;45.772;4.804;2022-12-18T01:04:12;37.28;;;15.80;;
74320;SDS011;62738;45.772;4.804;2022-12-18T01:06:39;37.80;;;16.15;;
74320;SDS011;62738;45.772;4.804;2022-12-18T01:09:06;40.83;;;16.77;;
74320;SDS011;62738;45.772;4.804;2022-12-18T01:11:32;38.72;;;16.00;;
74320;SDS011;62738;45.772;4.804;2022-12-18T01:13:59;40.85;;;16.88;;
74320;SDS011;62738;45.772;4.804;2022-12-18T01:16:26;39.33;;;16.65;;
74320;SDS011;62738;45.772;4.804;2022-12-18T01:18:53;39.20;;;16.90;;
74320;SDS011;62738;45.772;4.804;2022-12-18T01:21:21;40.20;;;16.73;;
74320;SDS011;62738;45.772;4.804;2022-12-18T01:23:52;40.17;;;16.90;;
74320;SDS011;62738;45.772;4.804;2022-12-18T01:26:20;37.17;;;15.63;;
74320;SDS011;62738;45.772;4.804;2022-12-18T01:28:46;36.63;;;15.50;;
74320;SDS011;62738;45.772;4.804;2022-12-18T01:33:54;43.53;;;16.85;;
74320;SDS011;62738;45.772;4.804;2022-12-18T01:36:23;35.03;;;15.77;;
74320;SDS011;62738;45.772;4.804;2022-12-18T01:38:51;40.00;;;16.27;;
74320;SDS011;62738;45.772;4.804;2022-12-18T01:41:19;40.17;;;17.13;;
74320;SDS011;62738;45.772;4.804;2022-12-18T01:43:55;39.17;;;16.35;;
74320;SDS011;62738;45.772;4.804;2022-12-18T01:46:26;40.40;;;16.13;;
74320;SDS011;62738;45.772;4.804;2022-12-18T01:48:54;40.13;;;16.67;;
74320;SDS011;62738;45.772;4.804;2022-12-18T01:51:23;44.20;;;16.80;;
74320;SDS011;62738;45.772;4.804;2022-12-18T01:53:51;45.75;;;18.60;;
74320;SDS011;62738;45.772;4.804;2022-12-18T01:56:18;40.47;;;17.38;;
74320;SDS011;62738;45.772;4.804;2022-12-18T01:58:52;40.80;;;17.05;;
74320;SDS011;62738;45.772;4.804;2022-12-18T02:04:14;41.63;;;16.10;;
74320;SDS011;62738;45.772;4.804;2022-12-18T02:06:46;41.35;;;16.85;;
74320;SDS011;62738;45.772;4.804;2022-12-18T02:11:52;37.50;;;14.65;;
74320;SDS011;62738;45.772;4.804;2022-12-18T02:14:37;40.42;;;15.98;;
74320;SDS011;62738;45.772;4.804;2022-12-18T02:17:11;40.70;;;16.85;;
74320;SDS011;62738;45.772;4.804;2022-12-18T02:22:29;38.28;;;15.40;;
74320;SDS011;62738;45.772;4.804;2022-12-18T02:28:06;37.40;;;14.55;;
74320;SDS011;62738;45.772;4.804;2022-12-18T02:30:37;31.90;;;14.05;;
74320;SDS011;62738;45.772;4.804;2022-12-18T02:33:06;31.67;;;14.43;;
74320;SDS011;62738;45.772;4.804;2022-12-18T02:35:35;32.88;;;13.82;;
74320;SDS011;62738;45.772;4.804;2022-12-18T02:38:03;36.30;;;14.88;;
74320;SDS011;62738;45.772;4.804;2022-12-18T02:40:30;34.92;;;15.10;;
74320;SDS011;62738;45.772;4.804;2022-12-18T02:43:10;34.67;;;14.93;;
74320;SDS011;62738;45.772;4.804;2022-12-18T02:45:47;33.45;;;14.48;;
74320;SDS011;62738;45.772;4.804;2022-12-18T02:48:16;30.02;;;13.05;;
74320;SDS011;62738;45.772;4.804;2022-12-18T02:50:45;35.00;;;15.07;;
74320;SDS011;62738;45.772;4.804;2022-12-18T02:53:30;36.08;;;14.70;;
74320;SDS011;62738;45.772;4.804;2022-12-18T02:56:06;35.15;;;15.30;;
74320;SDS011;62738;45.772;4.804;2022-12-18T03:04:55;35.80;;;14.93;;
74320;SDS011;62738;45.772;4.804;2022-12-18T03:07:34;37.10;;;14.90;;
74320;SDS011;62738;45.772;4.804;2022-12-18T03:10:13;30.65;;;14.13;;
74320;SDS011;62738;45.772;4.804;2022-12-18T03:12:54;33.53;;;14.90;;
74320;SDS011;62738;45.772;4.804;2022-12-18T03:15:43;35.72;;;14.85;;
74320;SDS011;62738;45.772;4.804;2022-12-18T03:18:23;36.13;;;15.60;;
74320;SDS011;62738;45.772;4.804;2022-12-18T03:20:53;32.92;;;15.20;;
74320;SDS011;62738;45.772;4.804;2022-12-18T03:23:24;31.38;;;13.10;;
74320;SDS011;62738;45.772;4.804;2022-12-18T03:25:55;32.33;;;14.00;;
74320;SDS011;62738;45.772;4.804;2022-12-18T03:28:33;37.17;;;15.23;;
74320;SDS011;62738;45.772;4.804;2022-12-18T03:31:03;34.42;;;15.18;;
74320;SDS011;62738;45.772;4.804;2022-12-18T03:33:41;32.45;;;14.95;;
74320;SDS011;62738;45.772;4.804;2022-12-18T03:36:12;36.17;;;14.85;;
74320;SDS011;62738;45.772;4.804;2022-12-18T03:38:40;34.13;;;15.30;;
74320;SDS011;62738;45.772;4.804;2022-12-18T03:41:13;35.40;;;14.18;;
74320;SDS011;62738;45.772;4.804;2022-12-18T03:43:51;36.58;;;15.55;;
74320;SDS011;62738;45.772;4.804;2022-12-18T03:46:33;33.88;;;14.30;;
74320;SDS011;62738;45.772;4.804;2022-12-18T03:49:11;35.83;;;14.70;;
74320;SDS011;62738;45.772;4.804;2022-12-18T03:51:47;33.00;;;15.30;;
74320;SDS011;62738;45.772;4.804;2022-12-18T03:54:16;34.67;;;14.30;;
74320;SDS011;62738;45.772;4.804;2022-12-18T03:56:45;36.00;;;15.10;;
74320;SDS011;62738;45.772;4.804;2022-12-18T03:59:15;33.63;;;14.63;;
74320;SDS011;62738;45.772;4.804;2022-12-18T04:01:46;33.30;;;14.20;;
74320;SDS011;62738;45.772;4.804;2022-12-18T04:04:15;36.67;;;15.20;;
74320;SDS011;62738;45.772;4.804;2022-12-18T04:06:44;34.90;;;15.23;;
74320;SDS011;62738;45.772;4.804;2022-12-18T04:09:13;35.97;;;14.63;;
74320;SDS011;62738;45.772;4.804;2022-12-18T04:11:40;31.52;;;14.45;;
74320;SDS011;62738;45.772;4.804;2022-12-18T04:14:10;34.60;;;14.98;;
74320;SDS011;62738;45.772;4.804;2022-12-18T04:16:43;31.25;;;14.32;;
74320;SDS011;62738;45.772;4.804;2022-12-18T04:19:10;36.60;;;15.43;;
74320;SDS011;62738;45.772;4.804;2022-12-18T04:21:36;30.73;;;13.15;;
74320;SDS011;62738;45.772;4.804;2022-12-18T04:24:03;34.50;;;14.55;;
74320;SDS011;62738;45.772;4.804;2022-12-18T04:26:30;34.17;;;14.27;;
74320;SDS011;62738;45.772;4.804;2022-12-18T04:28:56;36.30;;;15.32;;
74320;SDS011;62738;45.772;4.804;2022-12-18T04:31:23;33.47;;;14.07;;
74320;SDS011;62738;45.772;4.804;2022-12-18T04:33:49;35.50;;;14.30;;
74320;SDS011;62738;45.772;4.804;2022-12-18T04:36:16;31.67;;;14.55;;
74320;SDS011;62738;45.772;4.804;2022-12-18T04:38:43;30.30;;;13.80;;
74320;SDS011;62738;45.772;4.804;2022-12-18T04:41:09;33.42;;;14.40;;
74320;SDS011;62738;45.772;4.804;2022-12-18T04:43:38;34.90;;;13.88;;
74320;SDS011;62738;45.772;4.804;2022-12-18T04:46:06;34.75;;;14.88;;
74320;SDS011;62738;45.772;4.804;2022-12-18T04:48:35;32.10;;;14.68;;
74320;SDS011;62738;45.772;4.804;2022-12-18T04:51:03;33.58;;;14.35;;
74320;SDS011;62738;45.772;4.804;2022-12-18T04:53:31;36.75;;;15.52;;
74320;SDS011;62738;45.772;4.804;2022-12-18T04:56:11;33.10;;;15.35;;
74320;SDS011;62738;45.772;4.804;2022-12-18T04:58:39;33.53;;;14.45;;
74320;SDS011;62738;45.772;4.804;2022-12-18T05:01:07;33.75;;;14.48;;
74320;SDS011;62738;45.772;4.804;2022-12-18T05:03:35;36.40;;;15.52;;
74320;SDS011;62738;45.772;4.804;2022-12-18T05:06:04;36.45;;;15.30;;
74320;SDS011;62738;45.772;4.804;2022-12-18T05:08:32;33.53;;;14.05;;
74320;SDS011;62738;45.772;4.804;2022-12-18T05:11:05;31.77;;;13.95;;
74320;SDS011;62738;45.772;4.804;2022-12-18T05:13:34;33.20;;;14.98;;
74320;SDS011;62738;45.772;4.804;2022-12-18T05:16:02;35.63;;;16.45;;
74320;SDS011;62738;45.772;4.804;2022-12-18T05:18:29;34.17;;;15.45;;
74320;SDS011;62738;45.772;4.804;2022-12-18T05:20:57;38.85;;;15.32;;
74320;SDS011;62738;45.772;4.804;2022-12-18T05:23:24;35.33;;;15.65;;
74320;SDS011;62738;45.772;4.804;2022-12-18T05:25:51;35.95;;;15.15;;
74320;SDS011;62738;45.772;4.804;2022-12-18T05:28:20;32.50;;;14.43;;
74320;SDS011;62738;45.772;4.804;2022-12-18T05:30:52;32.10;;;14.25;;
74320;SDS011;62738;45.772;4.804;2022-12-18T05:33:21;35.03;;;15.27;;
74320;SDS011;62738;45.772;4.804;2022-12-18T05:35:52;32.15;;;14.40;;
74320;SDS011;62738;45.772;4.804;2022-12-18T05:38:21;34.70;;;15.05;;
74320;SDS011;62738;45.772;4.804;2022-12-18T05:40:49;33.30;;;14.93;;
74320;SDS011;62738;45.772;4.804;2022-12-18T05:43:16;34.03;;;15.25;;
74320;SDS011;62738;45.772;4.804;2022-12-18T05:45:47;33.17;;;14.68;;
74320;SDS011;62738;45.772;4.804;2022-12-18T05:48:14;33.95;;;15.05;;
74320;SDS011;62738;45.772;4.804;2022-12-18T05:50:41;31.65;;;14.35;;
74320;SDS011;62738;45.772;4.804;2022-12-18T05:53:12;31.92;;;14.52;;
74320;SDS011;62738;45.772;4.804;2022-12-18T05:55:40;34.65;;;15.23;;
74320;SDS011;62738;45.772;4.804;2022-12-18T05:58:07;34.58;;;14.73;;
74320;SDS011;62738;45.772;4.804;2022-12-18T06:00:36;31.80;;;14.55;;
74320;SDS011;62738;45.772;4.804;2022-12-18T06:03:06;32.65;;;15.02;;
74320;SDS011;62738;45.772;4.804;2022-12-18T06:05:34;34.88;;;14.32;;
74320;SDS011;62738;45.772;4.804;2022-12-18T06:10:33;33.08;;;13.27;;
74320;SDS011;62738;45.772;4.804;2022-12-18T06:13:00;33.05;;;14.30;;
74320;SDS011;62738;45.772;4.804;2022-12-18T06:15:27;31.30;;;14.98;;
74320;SDS011;62738;45.772;4.804;2022-12-18T06:17:54;33.88;;;15.02;;
74320;SDS011;62738;45.772;4.804;2022-12-18T06:20:20;31.27;;;14.38;;
74320;SDS011;62738;45.772;4.804;2022-12-18T06:22:48;29.85;;;14.80;;
74320;SDS011;62738;45.772;4.804;2022-12-18T06:25:15;31.42;;;14.77;;
74320;SDS011;62738;45.772;4.804;2022-12-18T06:27:41;33.20;;;15.35;;
74320;SDS011;62738;45.772;4.804;2022-12-18T06:30:09;32.75;;;15.00;;
74320;SDS011;62738;45.772;4.804;2022-12-18T06:32:36;32.22;;;13.88;;
74320;SDS011;62738;45.772;4.804;2022-12-18T06:35:03;31.45;;;14.38;;
74320;SDS011;62738;45.772;4.804;2022-12-18T06:37:31;30.80;;;13.77;;
74320;SDS011;62738;45.772;4.804;2022-12-18T06:39:57;32.47;;;13.68;;
74320;SDS011;62738;45.772;4.804;2022-12-18T06:42:24;29.48;;;14.35;;
74320;SDS011;62738;45.772;4.804;2022-12-18T06:44:51;33.72;;;14.55;;
74320;SDS011;62738;45.772;4.804;2022-12-18T06:47:18;33.85;;;15.18;;
74320;SDS011;62738;45.772;4.804;2022-12-18T06:49:44;34.30;;;15.05;;
74320;SDS011;62738;45.772;4.804;2022-12-18T06:52:11;33.13;;;13.48;;
74320;SDS011;62738;45.772;4.804;2022-12-18T06:54:38;33.20;;;15.63;;
74320;SDS011;62738;45.772;4.804;2022-12-18T06:57:04;38.70;;;16.52;;
74320;SDS011;62738;45.772;4.804;2022-12-18T06:59:31;35.20;;;15.68;;
74320;SDS011;62738;45.772;4.804;2022-12-18T07:01:57;37.55;;;15.43;;
74320;SDS011;62738;45.772;4.804;2022-12-18T07:04:30;37.67;;;15.73;;
74320;SDS011;62738;45.772;4.804;2022-12-18T07:06:58;35.53;;;15.70;;
74320;SDS011;62738;45.772;4.804;2022-12-18T07:09:24;35.92;;;14.25;;
74320;SDS011;62738;45.772;4.804;2022-12-18T07:11:51;35.78;;;14.63;;
74320;SDS011;62738;45.772;4.804;2022-12-18T07:14:18;34.13;;;15.48;;
74320;SDS011;62738;45.772;4.804;2022-12-18T07:16:46;37.30;;;15.60;;
74320;SDS011;62738;45.772;4.804;2022-12-18T07:19:13;35.30;;;15.98;;
74320;SDS011;62738;45.772;4.804;2022-12-18T07:21:39;36.80;;;15.32;;
74320;SDS011;62738;45.772;4.804;2022-12-18T07:24:06;35.72;;;15.68;;
74320;SDS011;62738;45.772;4.804;2022-12-18T07:26:33;33.60;;;15.43;;
74320;SDS011;62738;45.772;4.804;2022-12-18T07:29:00;38.03;;;15.13;;
74320;SDS011;62738;45.772;4.804;2022-12-18T07:31:26;39.40;;;15.45;;
74320;SDS011;62738;45.772;4.804;2022-12-18T07:33:53;36.70;;;15.90;;
74320;SDS011;62738;45.772;4.804;2022-12-18T07:36:23;35.05;;;15.45;;
74320;SDS011;62738;45.772;4.804;2022-12-18T07:38:50;36.85;;;14.52;;
74320;SDS011;62738;45.772;4.804;2022-12-18T07:41:18;36.45;;;15.30;;
74320;SDS011;62738;45.772;4.804;2022-12-18T07:43:45;40.08;;;16.90;;
74320;SDS011;62738;45.772;4.804;2022-12-18T07:46:12;37.10;;;15.35;;
74320;SDS011;62738;45.772;4.804;2022-12-18T07:48:44;34.53;;;15.38;;
74320;SDS011;62738;45.772;4.804;2022-12-18T07:51:15;33.72;;;15.57;;
74320;SDS011;62738;45.772;4.804;2022-12-18T07:53:43;39.40;;;15.13;;
74320;SDS011;62738;45.772;4.804;2022-12-18T07:56:11;37.38;;;16.33;;
74320;SDS011;62738;45.772;4.804;2022-12-18T07:58:56;40.60;;;17.48;;
74320;SDS011;62738;45.772;4.804;2022-12-18T08:01:23;34.95;;;14.90;;
74320;SDS011;62738;45.772;4.804;2022-12-18T08:03:50;39.42;;;16.20;;
74320;SDS011;62738;45.772;4.804;2022-12-18T08:06:17;32.97;;;14.93;;
74320;SDS011;62738;45.772;4.804;2022-12-18T08:08:50;35.67;;;15.18;;
74320;SDS011;62738;45.772;4.804;2022-12-18T08:11:17;36.08;;;15.15;;
74320;SDS011;62738;45.772;4.804;2022-12-18T08:13:44;39.17;;;16.48;;
74320;SDS011;62738;45.772;4.804;2022-12-18T08:16:11;38.03;;;15.85;;
74320;SDS011;62738;45.772;4.804;2022-12-18T08:18:38;34.08;;;15.38;;
74320;SDS011;62738;45.772;4.804;2022-12-18T08:21:08;37.75;;;16.40;;
74320;SDS011;62738;45.772;4.804;2022-12-18T08:23:36;38.70;;;15.60;;
74320;SDS011;62738;45.772;4.804;2022-12-18T08:26:08;35.22;;;14.73;;
74320;SDS011;62738;45.772;4.804;2022-12-18T08:28:36;34.55;;;14.68;;
74320;SDS011;62738;45.772;4.804;2022-12-18T08:31:02;36.40;;;15.57;;
74320;SDS011;62738;45.772;4.804;2022-12-18T08:33:30;37.47;;;15.45;;
74320;SDS011;62738;45.772;4.804;2022-12-18T08:35:57;40.72;;;15.68;;
74320;SDS011;62738;45.772;4.804;2022-12-18T08:38:24;40.42;;;17.00;;
74320;SDS011;62738;45.772;4.804;2022-12-18T08:41:00;38.50;;;14.60;;
74320;SDS011;62738;45.772;4.804;2022-12-18T08:43:31;38.80;;;16.35;;
74320;SDS011;62738;45.772;4.804;2022-12-18T08:46:20;40.35;;;15.98;;
74320;SDS011;62738;45.772;4.804;2022-12-18T08:51:16;38.80;;;15.48;;
74320;SDS011;62738;45.772;4.804;2022-12-18T08:53:43;41.05;;;16.73;;
74320;SDS011;62738;45.772;4.804;2022-12-18T08:56:11;40.65;;;16.55;;
74320;SDS011;62738;45.772;4.804;2022-12-18T08:58:38;38.63;;;15.65;;
74320;SDS011;62738;45.772;4.804;2022-12-18T09:01:06;43.38;;;17.60;;
74320;SDS011;62738;45.772;4.804;2022-12-18T09:03:35;42.35;;;16.42;;
74320;SDS011;62738;45.772;4.804;2022-12-18T09:06:03;40.88;;;16.17;;
74320;SDS011;62738;45.772;4.804;2022-12-18T09:08:29;43.38;;;18.23;;
74320;SDS011;62738;45.772;4.804;2022-12-18T09:10:56;41.22;;;17.10;;
74320;SDS011;62738;45.772;4.804;2022-12-18T09:13:22;45.60;;;17.10;;
74320;SDS011;62738;45.772;4.804;2022-12-18T09:15:51;46.47;;;18.13;;
74320;SDS011;62738;45.772;4.804;2022-12-18T09:18:19;41.33;;;16.83;;
74320;SDS011;62738;45.772;4.804;2022-12-18T09:20:47;44.58;;;17.83;;
74320;SDS011;62738;45.772;4.804;2022-12-18T09:23:14;41.95;;;17.58;;
74320;SDS011;62738;45.772;4.804;2022-12-18T09:25:41;39.88;;;17.08;;
74320;SDS011;62738;45.772;4.804;2022-12-18T09:28:14;42.00;;;17.10;;
74320;SDS011;62738;45.772;4.804;2022-12-18T09:30:43;39.10;;;17.17;;
74320;SDS011;62738;45.772;4.804;2022-12-18T09:33:12;39.72;;;16.45;;
74320;SDS011;62738;45.772;4.804;2022-12-18T09:35:40;38.72;;;16.67;;
74320;SDS011;62738;45.772;4.804;2022-12-18T09:38:08;41.80;;;17.73;;
74320;SDS011;62738;45.772;4.804;2022-12-18T09:40:42;44.92;;;17.55;;
74320;SDS011;62738;45.772;4.804;2022-12-18T09:43:35;41.45;;;16.75;;
74320;SDS011;62738;45.772;4.804;2022-12-18T09:46:09;40.55;;;16.50;;
74320;SDS011;62738;45.772;4.804;2022-12-18T09:48:43;43.92;;;17.30;;
74320;SDS011;62738;45.772;4.804;2022-12-18T09:51:15;45.78;;;18.95;;
74320;SDS011;62738;45.772;4.804;2022-12-18T09:54:20;42.45;;;18.15;;
74320;SDS011;62738;45.772;4.804;2022-12-18T09:56:42;39.65;;;16.83;;
74320;SDS011;62738;45.772;4.804;2022-12-18T09:59:15;39.38;;;16.65;;
74320;SDS011;62738;45.772;4.804;2022-12-18T10:01:47;44.47;;;17.30;;
74320;SDS011;62738;45.772;4.804;2022-12-18T10:04:14;36.13;;;16.42;;
74320;SDS011;62738;45.772;4.804;2022-12-18T10:09:39;37.75;;;16.30;;
74320;SDS011;62738;45.772;4.804;2022-12-18T10:15:31;38.03;;;15.80;;
74320;SDS011;62738;45.772;4.804;2022-12-18T10:21:12;33.55;;;15.32;;
74320;SDS011;62738;45.772;4.804;2022-12-18T10:26:40;39.30;;;17.42;;
74320;SDS011;62738;45.772;4.804;2022-12-18T10:29:12;38.72;;;16.70;;
74320;SDS011;62738;45.772;4.804;2022-12-18T10:31:40;36.67;;;16.08;;
74320;SDS011;62738;45.772;4.804;2022-12-18T10:34:11;36.58;;;16.48;;
74320;SDS011;62738;45.772;4.804;2022-12-18T10:36:41;41.10;;;18.25;;
74320;SDS011;62738;45.772;4.804;2022-12-18T10:39:22;38.88;;;17.30;;
74320;SDS011;62738;45.772;4.804;2022-12-18T10:41:49;42.03;;;17.65;;
74320;SDS011;62738;45.772;4.804;2022-12-18T10:47:02;38.33;;;16.88;;
74320;SDS011;62738;45.772;4.804;2022-12-18T10:49:36;40.30;;;16.35;;
74320;SDS011;62738;45.772;4.804;2022-12-18T10:52:14;39.28;;;17.05;;
74320;SDS011;62738;45.772;4.804;2022-12-18T10:54:51;42.53;;;17.77;;
74320;SDS011;62738;45.772;4.804;2022-12-18T10:59:59;44.22;;;17.55;;
74320;SDS011;62738;45.772;4.804;2022-12-18T11:02:35;42.47;;;17.70;;
74320;SDS011;62738;45.772;4.804;2022-12-18T11:07:51;43.88;;;17.27;;
74320;SDS011;62738;45.772;4.804;2022-12-18T11:10:21;45.35;;;17.95;;
74320;SDS011;62738;45.772;4.804;2022-12-18T11:12:51;44.15;;;18.08;;
74320;SDS011;62738;45.772;4.804;2022-12-18T11:15:23;41.60;;;18.25;;
74320;SDS011;62738;45.772;4.804;2022-12-18T11:17:55;43.33;;;16.98;;
74320;SDS011;62738;45.772;4.804;2022-12-18T11:20:26;41.28;;;17.45;;
74320;SDS011;62738;45.772;4.804;2022-12-18T11:22:57;42.15;;;18.08;;
74320;SDS011;62738;45.772;4.804;2022-12-18T11:25:27;42.15;;;17.15;;
74320;SDS011;62738;45.772;4.804;2022-12-18T11:28:00;40.70;;;17.77;;
74320;SDS011;62738;45.772;4.804;2022-12-18T11:32:58;44.47;;;17.67;;
74320;SDS011;62738;45.772;4.804;2022-12-18T11:40:40;40.47;;;16.45;;
74320;SDS011;62738;45.772;4.804;2022-12-18T11:43:14;42.08;;;18.08;;
74320;SDS011;62738;45.772;4.804;2022-12-18T11:45:47;44.83;;;17.70;;
74320;SDS011;62738;45.772;4.804;2022-12-18T11:48:22;41.47;;;17.98;;
74320;SDS011;62738;45.772;4.804;2022-12-18T11:50:54;42.70;;;18.65;;
74320;SDS011;62738;45.772;4.804;2022-12-18T11:53:23;43.78;;;18.50;;
74320;SDS011;62738;45.772;4.804;2022-12-18T11:55:57;40.67;;;17.35;;
74320;SDS011;62738;45.772;4.804;2022-12-18T11:59:21;45.13;;;18.58;;
74320;SDS011;62738;45.772;4.804;2022-12-18T12:02:03;40.20;;;17.60;;
74320;SDS011;62738;45.772;4.804;2022-12-18T12:10:23;37.90;;;16.80;;
74320;SDS011;62738;45.772;4.804;2022-12-18T12:16:43;37.42;;;17.23;;
74320;SDS011;62738;45.772;4.804;2022-12-18T12:19:35;35.92;;;14.85;;
74320;SDS011;62738;45.772;4.804;2022-12-18T12:27:20;36.15;;;17.30;;
74320;SDS011;62738;45.772;4.804;2022-12-18T12:37:56;40.20;;;17.20;;
74320;SDS011;62738;45.772;4.804;2022-12-18T12:40:26;36.42;;;16.70;;
74320;SDS011;62738;45.772;4.804;2022-12-18T12:43:20;40.42;;;18.17;;
74320;SDS011;62738;45.772;4.804;2022-12-18T12:48:36;37.75;;;17.85;;
74320;SDS011;62738;45.772;4.804;2022-12-18T12:51:30;42.45;;;18.38;;
74320;SDS011;62738;45.772;4.804;2022-12-18T12:54:01;36.17;;;15.98;;
74320;SDS011;62738;45.772;4.804;2022-12-18T12:56:45;36.17;;;17.27;;
74320;SDS011;62738;45.772;4.804;2022-12-18T13:04:36;35.50;;;17.05;;
74320;SDS011;62738;45.772;4.804;2022-12-18T13:07:12;40.25;;;17.75;;
74320;SDS011;62738;45.772;4.804;2022-12-18T13:13:18;36.40;;;17.17;;
74320;SDS011;62738;45.772;4.804;2022-12-18T13:16:06;35.17;;;16.83;;
74320;SDS011;62738;45.772;4.804;2022-12-18T13:18:34;35.65;;;17.15;;
74320;SDS011;62738;45.772;4.804;2022-12-18T13:21:08;35.33;;;17.60;;
74320;SDS011;62738;45.772;4.804;2022-12-18T13:24:14;37.80;;;17.45;;
74320;SDS011;62738;45.772;4.804;2022-12-18T13:27:58;32.75;;;17.00;;
74320;SDS011;62738;45.772;4.804;2022-12-18T13:38:33;32.92;;;16.33;;
74320;SDS011;62738;45.772;4.804;2022-12-18T13:43:43;33.67;;;16.38;;
74320;SDS011;62738;45.772;4.804;2022-12-18T13:46:19;36.00;;;17.30;;
74320;SDS011;62738;45.772;4.804;2022-12-18T13:48:50;33.45;;;15.65;;
74320;SDS011;62738;45.772;4.804;2022-12-18T13:51:20;34.00;;;16.08;;
74320;SDS011;62738;45.772;4.804;2022-12-18T13:54:00;32.83;;;16.55;;
74320;SDS011;62738;45.772;4.804;2022-12-18T13:56:32;32.67;;;16.48;;
74320;SDS011;62738;45.772;4.804;2022-12-18T14:01:43;33.47;;;16.02;;
74320;SDS011;62738;45.772;4.804;2022-12-18T14:04:12;33.63;;;17.60;;
74320;SDS011;62738;45.772;4.804;2022-12-18T14:06:46;33.58;;;17.38;;
74320;SDS011;62738;45.772;4.804;2022-12-18T14:09:15;39.67;;;17.77;;
74320;SDS011;62738;45.772;4.804;2022-12-18T14:11:50;32.50;;;16.80;;
74320;SDS011;62738;45.772;4.804;2022-12-18T14:14:18;34.30;;;17.15;;
74320;SDS011;62738;45.772;4.804;2022-12-18T14:16:46;34.13;;;17.10;;
74320;SDS011;62738;45.772;4.804;2022-12-18T14:19:17;34.80;;;18.77;;
74320;SDS011;62738;45.772;4.804;2022-12-18T14:21:47;31.98;;;17.55;;
74320;SDS011;62738;45.772;4.804;2022-12-18T14:24:20;31.27;;;16.58;;
74320;SDS011;62738;45.772;4.804;2022-12-18T14:26:48;30.85;;;15.57;;
74320;SDS011;62738;45.772;4.804;2022-12-18T14:29:23;31.67;;;16.25;;
74320;SDS011;62738;45.772;4.804;2022-12-18T14:32:09;28.73;;;14.95;;
74320;SDS011;62738;45.772;4.804;2022-12-18T14:34:49;32.20;;;15.63;;
74320;SDS011;62738;45.772;4.804;2022-12-18T14:37:20;33.45;;;17.83;;
74320;SDS011;62738;45.772;4.804;2022-12-18T14:39:58;34.70;;;17.23;;
74320;SDS011;62738;45.772;4.804;2022-12-18T14:42:34;33.10;;;17.33;;
74320;SDS011;62738;45.772;4.804;2022-12-18T14:48:11;35.00;;;17.30;;
74320;SDS011;62738;45.772;4.804;2022-12-18T14:50:55;33.17;;;16.50;;
74320;SDS011;62738;45.772;4.804;2022-12-18T14:53:31;35.78;;;17.08;;
74320;SDS011;62738;45.772;4.804;2022-12-18T14:55:58;33.65;;;16.73;;
74320;SDS011;62738;45.772;4.804;2022-12-18T14:58:25;34.08;;;15.85;;
74320;SDS011;62738;45.772;4.804;2022-12-18T15:00:53;33.47;;;17.05;;
74320;SDS011;62738;45.772;4.804;2022-12-18T15:03:21;35.63;;;17.95;;
74320;SDS011;62738;45.772;4.804;2022-12-18T15:05:48;36.22;;;17.52;;
74320;SDS011;62738;45.772;4.804;2022-12-18T15:08:57;32.72;;;16.17;;
74320;SDS011;62738;45.772;4.804;2022-12-18T15:13:51;27.80;;;15.18;;
74320;SDS011;62738;45.772;4.804;2022-12-18T15:16:18;31.15;;;16.60;;
74320;SDS011;62738;45.772;4.804;2022-12-18T15:18:45;35.47;;;17.95;;
74320;SDS011;62738;45.772;4.804;2022-12-18T15:21:16;34.55;;;15.88;;
74320;SDS011;62738;45.772;4.804;2022-12-18T15:26:13;35.78;;;15.93;;
74320;SDS011;62738;45.772;4.804;2022-12-18T15:36:19;33.55;;;17.98;;
74320;SDS011;62738;45.772;4.804;2022-12-18T15:38:52;34.85;;;17.63;;
74320;SDS011;62738;45.772;4.804;2022-12-18T15:41:31;32.50;;;17.15;;
74320;SDS011;62738;45.772;4.804;2022-12-18T15:44:01;34.35;;;17.27;;
74320;SDS011;62738;45.772;4.804;2022-12-18T15:46:29;33.45;;;17.33;;
74320;SDS011;62738;45.772;4.804;2022-12-18T15:48:57;35.47;;;17.52;;
74320;SDS011;62738;45.772;4.804;2022-12-18T15:51:31;31.67;;;16.08;;
74320;SDS011;62738;45.772;4.804;2022-12-18T15:54:00;27.50;;;14.55;;
74320;SDS011;62738;45.772;4.804;2022-12-18T15:56:30;23.90;;;12.30;;
74320;SDS011;62738;45.772;4.804;2022-12-18T15:59:17;22.13;;;10.93;;
74320;SDS011;62738;45.772;4.804;2022-12-18T16:01:46;15.32;;;7.95;;
74320;SDS011;62738;45.772;4.804;2022-12-18T16:04:15;16.40;;;7.25;;
74320;SDS011;62738;45.772;4.804;2022-12-18T16:06:42;8.95;;;4.05;;
74320;SDS011;62738;45.772;4.804;2022-12-18T16:09:29;6.45;;;3.20;;
74320;SDS011;62738;45.772;4.804;2022-12-18T16:11:56;5.75;;;2.28;;
74320;SDS011;62738;45.772;4.804;2022-12-18T16:14:26;5.15;;;2.50;;
74320;SDS011;62738;45.772;4.804;2022-12-18T16:16:55;6.32;;;3.20;;
74320;SDS011;62738;45.772;4.804;2022-12-18T16:19:24;4.72;;;2.40;;
74320;SDS011;62738;45.772;4.804;2022-12-18T16:21:51;4.22;;;2.38;;
74320;SDS011;62738;45.772;4.804;2022-12-18T16:24:22;4.10;;;2.38;;
74320;SDS011;62738;45.772;4.804;2022-12-18T16:26:50;7.95;;;2.45;;
74320;SDS011;62738;45.772;4.804;2022-12-18T16:29:18;4.28;;;2.05;;
74320;SDS011;62738;45.772;4.804;2022-12-18T16:31:55;7.93;;;2.35;;
74320;SDS011;62738;45.772;4.804;2022-12-18T16:34:23;5.50;;;2.50;;
74320;SDS011;62738;45.772;4.804;2022-12-18T16:36:55;4.57;;;2.40;;
74320;SDS011;62738;45.772;4.804;2022-12-18T16:39:29;5.88;;;2.95;;
74320;SDS011;62738;45.772;4.804;2022-12-18T16:41:57;4.82;;;2.45;;
74320;SDS011;62738;45.772;4.804;2022-12-18T16:44:24;3.78;;;2.10;;